Time;durP1;ratioP1;P1;durP2;ratioP2;P2;SDS_P1;SDS_P2;PMS_P1;PMS_P2;Temp;Humidity;BMP_temperature;BMP_pressure;BME280_temperature;BME280_humidity;BME280_pressure;Samples;Min_cycle;Max_cycle;Signal;HPM_P1;HPM_P2
2021/01/24 00:00:48;;;;;;;3.43;3.10;;;;;;;2.56;100.00;93850.28;5036464;28;20495;-85
2021/01/24 00:03:15;;;;;;;7.50;3.03;;;;;;;2.62;100.00;93863.34;5036089;28;20447;-85
2021/01/24 00:05:42;;;;;;;3.53;2.80;;;;;;;2.56;100.00;93855.59;5036233;28;20500;-85
2021/01/24 00:08:09;;;;;;;3.73;3.40;;;;;;;2.59;100.00;93867.81;5036451;28;20828;-85
2021/01/24 00:10:35;;;;;;;6.50;3.33;;;;;;;2.65;100.00;93867.56;5036597;28;21010;-85
2021/01/24 00:13:01;;;;;;;2.77;2.47;;;;;;;2.56;100.00;93871.56;5037081;28;20402;-85
2021/01/24 00:15:28;;;;;;;3.83;2.23;;;;;;;2.62;100.00;93880.03;5037754;28;20448;-84
2021/01/24 00:17:55;;;;;;;2.60;2.40;;;;;;;2.54;100.00;93882.03;5043859;28;20418;-84
2021/01/24 00:20:22;;;;;;;3.50;1.93;;;;;;;2.46;100.00;93883.38;5043942;28;20552;-84
2021/01/24 00:22:48;;;;;;;2.77;2.07;;;;;;;2.55;100.00;93880.09;5037569;28;20530;-85
2021/01/24 00:25:14;;;;;;;3.07;2.30;;;;;;;2.55;100.00;93874.78;5035802;28;20481;-85
2021/01/24 00:27:41;;;;;;;2.10;1.90;;;;;;;2.51;100.00;93872.50;5035805;28;20447;-85
2021/01/24 00:30:09;;;;;;;2.20;1.77;;;;;;;2.64;100.00;93882.13;5035940;28;20530;-85
2021/01/24 00:32:35;;;;;;;1.93;1.57;;;;;;;2.63;100.00;93876.09;5035904;28;20447;-85
2021/01/24 00:35:04;;;;;;;1.73;1.47;;;;;;;2.72;100.00;93880.09;5035707;28;20443;-85
2021/01/24 00:37:30;;;;;;;4.47;2.10;;;;;;;2.64;100.00;93882.13;5035431;28;20443;-85
2021/01/24 00:39:57;;;;;;;3.60;1.63;;;;;;;2.64;100.00;93884.78;5035172;28;20611;-85
2021/01/24 00:42:23;;;;;;;2.07;1.60;;;;;;;2.54;100.00;93889.31;5035993;28;20414;-86
2021/01/24 00:44:50;;;;;;;4.20;2.37;;;;;;;2.49;100.00;93883.00;5035844;28;20443;-86
2021/01/24 00:47:16;;;;;;;4.00;2.30;;;;;;;2.53;100.00;93887.94;5035320;28;20467;-85
2021/01/24 00:49:42;;;;;;;3.07;2.03;;;;;;;2.53;100.00;93885.97;5036001;28;20507;-85
2021/01/24 00:52:10;;;;;;;2.23;1.97;;;;;;;2.51;100.00;93887.75;5035433;28;20571;-85
2021/01/24 00:54:36;;;;;;;2.67;1.77;;;;;;;2.48;100.00;93884.22;5035752;28;20467;-86
2021/01/24 00:57:03;;;;;;;4.10;2.00;;;;;;;2.55;100.00;93885.41;5035759;28;20458;-85
2021/01/24 00:59:29;;;;;;;1.70;1.60;;;;;;;2.45;100.00;93889.94;5038955;28;20511;-85
2021/01/24 01:01:56;;;;;;;2.67;1.90;;;;;;;2.40;100.00;93896.22;5059537;28;20463;-85
2021/01/24 01:04:22;;;;;;;2.00;1.70;;;;;;;2.37;100.00;93897.31;5059211;28;20442;-85
2021/01/24 01:06:54;;;;;;;2.90;2.00;;;;;;;2.49;100.00;93898.25;5055846;28;20435;-84
2021/01/24 01:09:22;;;;;;;2.80;2.53;;;;;;;2.48;100.00;93899.50;5042056;28;20457;-84
2021/01/24 01:11:48;;;;;;;3.00;2.10;;;;;;;2.42;100.00;93901.69;5052899;28;20466;-85
2021/01/24 01:14:14;;;;;;;2.40;1.60;;;;;;;2.34;100.00;93901.75;5036650;28;20867;-85
2021/01/24 01:16:41;;;;;;;2.57;2.37;;;;;;;2.39;100.00;93905.44;5034760;28;20538;-85
2021/01/24 01:19:07;;;;;;;3.20;2.53;;;;;;;2.44;100.00;93904.50;5035229;28;20453;-86
2021/01/24 01:21:33;;;;;;;2.30;2.03;;;;;;;2.33;100.00;93899.63;5034819;28;20448;-86
2021/01/24 01:24:00;;;;;;;2.17;1.97;;;;;;;2.49;100.00;93904.28;5034957;28;20443;-86
2021/01/24 01:26:27;;;;;;;2.77;2.30;;;;;;;2.46;100.00;93902.00;5034346;28;20440;-85
2021/01/24 01:28:53;;;;;;;1.80;1.40;;;;;;;2.47;100.00;93903.41;5035027;28;20439;-85
2021/01/24 01:31:20;;;;;;;2.97;2.23;;;;;;;2.44;100.00;93901.84;5034575;28;20487;-85
2021/01/24 01:33:46;;;;;;;3.00;2.43;;;;;;;2.41;100.00;93892.31;5034881;28;20501;-86
2021/01/24 01:36:13;;;;;;;2.50;1.97;;;;;;;2.37;100.00;93890.03;5034709;28;20461;-86
2021/01/24 01:38:39;;;;;;;1.70;1.60;;;;;;;2.39;100.00;93884.16;5049802;28;20432;-86
2021/01/24 01:41:05;;;;;;;1.77;1.67;;;;;;;2.49;100.00;93893.63;5059020;28;20451;-85
2021/01/24 01:43:32;;;;;;;3.10;1.93;;;;;;;2.46;100.00;93894.03;5058847;28;20420;-85
2021/01/24 01:45:59;;;;;;;2.53;1.83;;;;;;;2.49;100.00;93895.59;5056792;28;20431;-85
2021/01/24 01:48:26;;;;;;;2.50;1.83;;;;;;;2.44;100.00;93893.88;5034863;28;20447;-86
2021/01/24 01:50:52;;;;;;;2.33;2.13;;;;;;;2.42;100.00;93893.69;5034440;28;20486;-86
2021/01/24 01:53:19;;;;;;;3.20;2.30;;;;;;;2.35;100.00;93894.50;5034473;28;20574;-86
2021/01/24 01:55:45;;;;;;;2.27;2.00;;;;;;;2.36;100.00;93891.28;5034543;28;20951;-86
2021/01/24 01:58:11;;;;;;;2.60;1.97;;;;;;;2.36;100.00;93888.59;5034189;28;20435;-85
2021/01/24 02:00:38;;;;;;;2.27;1.80;;;;;;;2.40;100.00;93896.91;5034735;28;20472;-85
2021/01/24 02:03:19;;;;;;;2.27;1.87;;;;;;;2.40;100.00;93898.88;5034572;28;20439;-85
2021/01/24 02:05:54;;;;;;;2.67;2.47;;;;;;;2.39;100.00;93903.47;5034357;28;20531;-85
2021/01/24 02:08:28;;;;;;;2.03;1.87;;;;;;;2.49;100.00;93900.91;5034206;28;20498;-85
2021/01/24 02:11:01;;;;;;;3.63;1.87;;;;;;;2.52;100.00;93915.78;5034041;28;20487;-85
2021/01/24 02:13:37;;;;;;;2.50;1.60;;;;;;;2.49;100.00;93911.56;5034362;28;20420;-85
2021/01/24 02:16:08;;;;;;;2.00;1.60;;;;;;;2.42;100.00;93923.69;5034300;28;20792;-84
2021/01/24 02:18:37;;;;;;;1.70;1.40;;;;;;;2.32;100.00;93922.19;5014992;28;20482;-85
2021/01/24 02:21:10;;;;;;;1.20;1.00;;;;;;;2.20;100.00;93932.53;5016509;28;20844;-84
2021/01/24 02:23:41;;;;;;;0.97;0.80;;;;;;;2.20;100.00;93934.50;5016924;28;20495;-85
2021/01/24 02:26:12;;;;;;;1.67;0.83;;;;;;;2.16;100.00;93948.88;5017007;28;20436;-84
2021/01/24 02:28:54;;;;;;;1.00;0.77;;;;;;;2.15;100.00;93958.13;5026107;28;20379;-85
2021/01/24 02:31:25;;;;;;;2.30;0.70;;;;;;;2.15;100.00;93955.47;5032424;28;20503;-85
2021/01/24 02:33:54;;;;;;;1.93;0.50;;;;;;;2.09;100.00;93959.59;5014460;28;20432;-85
2021/01/24 02:36:21;;;;;;;0.90;0.60;;;;;;;2.13;100.00;93967.91;5014133;28;20482;-84
2021/01/24 02:38:48;;;;;;;1.00;0.40;;;;;;;2.09;100.00;93970.22;5014602;28;20448;-84
2021/01/24 02:41:15;;;;;;;0.63;0.30;;;;;;;2.09;99.55;93978.91;5017827;28;20464;-85
2021/01/24 02:43:44;;;;;;;0.60;0.47;;;;;;;2.06;99.54;93985.31;5017558;28;20448;-85
2021/01/24 02:46:11;;;;;;;1.00;0.50;;;;;;;2.08;99.40;93998.06;5017694;28;20562;-85
2021/01/24 02:48:39;;;;;;;0.60;0.37;;;;;;;2.15;98.65;94015.94;5017677;28;20444;-86
2021/01/24 02:51:06;;;;;;;0.70;0.60;;;;;;;2.15;99.01;94015.94;5017536;28;20466;-87
2021/01/24 02:53:34;;;;;;;1.37;0.50;;;;;;;2.19;98.96;94029.56;5017922;28;20414;-86
2021/01/24 02:56:01;;;;;;;0.50;0.30;;;;;;;2.11;98.99;94029.59;5017254;28;20448;-86
2021/01/24 02:58:29;;;;;;;0.60;0.40;;;;;;;2.16;98.24;94034.00;5017145;28;20924;-86
2021/01/24 03:00:55;;;;;;;0.50;0.40;;;;;;;2.13;98.11;94045.03;5017381;28;20964;-86
2021/01/24 03:03:22;;;;;;;0.60;0.50;;;;;;;2.18;98.26;94044.09;5017573;28;20444;-87
2021/01/24 03:05:49;;;;;;;0.67;0.50;;;;;;;2.11;96.81;94042.88;5017887;28;20418;-86
2021/01/24 03:08:16;;;;;;;0.60;0.40;;;;;;;2.10;96.35;94052.09;5017371;28;20456;-86
2021/01/24 03:10:42;;;;;;;0.60;0.60;;;;;;;2.05;95.13;94049.66;5017087;28;20503;-86
2021/01/24 03:13:14;;;;;;;1.33;0.73;;;;;;;1.98;94.80;94045.78;5017064;28;20451;-86
2021/01/24 03:15:43;;;;;;;1.00;0.90;;;;;;;1.88;94.33;94060.22;5017466;28;20432;-86
2021/01/24 03:18:15;;;;;;;0.70;0.60;;;;;;;1.91;93.69;94070.47;5018007;28;20435;-86
2021/01/24 03:20:43;;;;;;;1.60;1.30;;;;;;;2.03;93.89;94084.78;5017150;28;21057;-86
2021/01/24 03:23:12;;;;;;;2.17;1.83;;;;;;;1.91;96.61;94093.69;5017113;28;20855;-86
2021/01/24 03:25:40;;;;;;;1.00;0.80;;;;;;;1.78;98.62;94102.59;5017197;28;20506;-86
2021/01/24 03:28:07;;;;;;;2.20;1.40;;;;;;;1.81;99.19;94108.78;5017293;28;20527;-85
2021/01/24 03:30:34;;;;;;;1.97;1.37;;;;;;;1.74;100.00;94118.22;5016684;28;20554;-87
2021/01/24 03:33:00;;;;;;;1.70;1.20;;;;;;;1.76;100.00;94109.69;5017239;28;20430;-86
2021/01/24 03:35:27;;;;;;;2.50;1.60;;;;;;;1.71;100.00;94127.25;5016844;28;20429;-86
2021/01/24 03:37:54;;;;;;;2.20;1.73;;;;;;;1.58;100.00;94138.78;5016444;28;20444;-86
2021/01/24 03:40:21;;;;;;;2.33;1.70;;;;;;;1.57;100.00;94141.97;5017205;28;20471;-86
2021/01/24 03:42:48;;;;;;;2.87;1.90;;;;;;;1.57;100.00;94141.97;5016928;28;20443;-86
2021/01/24 03:45:15;;;;;;;2.50;1.77;;;;;;;1.49;100.00;94146.59;5016302;28;20530;-86
2021/01/24 03:47:41;;;;;;;5.27;2.20;;;;;;;1.48;100.00;94139.88;5016363;28;20441;-86
2021/01/24 03:50:09;;;;;;;3.00;1.97;;;;;;;1.36;98.88;94152.09;5016356;28;20480;-86
2021/01/24 03:52:36;;;;;;;2.33;2.10;;;;;;;1.27;98.47;94144.69;5016577;28;20429;-86
2021/01/24 03:55:03;;;;;;;5.03;2.67;;;;;;;1.24;98.12;94159.03;5015897;28;20963;-86
2021/01/24 03:57:30;;;;;;;3.63;2.47;;;;;;;1.24;96.60;94157.09;5016526;28;20451;-86
2021/01/24 03:59:56;;;;;;;3.90;2.50;;;;;;;1.26;96.34;94157.25;5016650;28;20464;-86
2021/01/24 04:02:23;;;;;;;5.33;2.70;;;;;;;1.19;95.68;94165.22;5016594;28;20448;-86
2021/01/24 04:04:49;;;;;;;3.30;2.23;;;;;;;1.18;95.17;94161.16;5016057;28;20452;-86
2021/01/24 04:07:16;;;;;;;3.23;2.40;;;;;;;1.24;95.49;94159.03;5016346;28;20504;-86
2021/01/24 04:09:43;;;;;;;3.40;2.80;;;;;;;1.14;95.17;94166.81;5016058;28;20468;-86
2021/01/24 04:12:10;;;;;;;2.93;2.40;;;;;;;1.18;94.58;94163.81;5015775;28;20479;-86
2021/01/24 04:14:37;;;;;;;3.90;2.33;;;;;;;1.25;95.01;94179.03;5015887;28;20462;-86
2021/01/24 04:17:04;;;;;;;4.57;2.67;;;;;;;1.26;94.37;94185.75;5015995;28;20527;-86
2021/01/24 04:19:31;;;;;;;3.30;2.70;;;;;;;1.37;92.95;94175.50;5016035;28;20443;-86
2021/01/24 04:21:57;;;;;;;3.13;2.30;;;;;;;1.40;92.57;94184.34;5015695;28;20560;-86
2021/01/24 04:24:23;;;;;;;3.60;2.50;;;;;;;1.36;91.89;94192.66;5015573;28;20451;-86
2021/01/24 04:26:50;;;;;;;2.80;1.80;;;;;;;1.38;92.34;94202.78;5016165;28;20444;-86
2021/01/24 04:29:16;;;;;;;3.53;2.27;;;;;;;1.41;91.75;94199.06;5016116;28;20853;-87
2021/01/24 04:31:44;;;;;;;3.37;2.47;;;;;;;1.39;91.66;94194.25;5015196;28;20502;-86
2021/01/24 04:34:10;;;;;;;2.33;1.73;;;;;;;1.17;91.94;94196.91;5016618;28;20444;-86
2021/01/24 04:36:36;;;;;;;4.60;2.80;;;;;;;1.18;92.05;94200.97;5038338;28;20452;-85
2021/01/24 04:39:03;;;;;;;4.40;2.70;;;;;;;1.06;92.65;94208.59;5040306;28;20420;-86
2021/01/24 04:41:30;;;;;;;4.30;2.80;;;;;;;0.94;92.85;94208.22;5040047;28;20555;-85
2021/01/24 04:43:57;;;;;;;3.73;2.43;;;;;;;1.05;93.67;94215.13;5030584;28;20827;-86
2021/01/24 04:46:23;;;;;;;3.73;2.90;;;;;;;0.92;91.56;94220.59;5015641;28;20432;-86
2021/01/24 04:48:51;;;;;;;3.20;2.60;;;;;;;0.86;89.50;94218.13;5015913;28;20480;-86
2021/01/24 04:51:17;;;;;;;2.90;2.10;;;;;;;0.84;88.97;94231.22;5015145;28;20519;-87
2021/01/24 04:53:45;;;;;;;2.23;1.90;;;;;;;0.84;85.31;94228.56;5015279;28;20455;-86
2021/01/24 04:56:12;;;;;;;8.63;2.87;;;;;;;0.88;84.98;94228.91;5015139;28;20414;-86
2021/01/24 04:58:39;;;;;;;2.93;1.97;;;;;;;0.85;84.04;94232.63;5015155;28;20809;-85
2021/01/24 05:01:08;;;;;;;3.10;2.27;;;;;;;0.84;83.42;94241.13;5015242;28;20460;-85
2021/01/24 05:03:35;;;;;;;3.40;2.20;;;;;;;0.72;82.56;94246.03;5015146;28;20932;-84
2021/01/24 05:06:02;;;;;;;4.20;2.63;;;;;;;0.83;81.72;94243.06;5016072;28;20448;-87
2021/01/24 05:08:31;;;;;;;3.27;2.00;;;;;;;0.68;82.48;94244.97;5015992;28;20439;-85
2021/01/24 05:11:07;;;;;;;2.60;1.97;;;;;;;0.64;83.44;94247.25;5015042;28;20507;-85
2021/01/24 05:13:34;;;;;;;5.60;2.13;;;;;;;0.65;83.91;94249.38;5015977;28;20514;-85
2021/01/24 05:16:00;;;;;;;3.70;1.87;;;;;;;0.70;84.37;94250.44;5015463;28;20434;-85
2021/01/24 05:18:27;;;;;;;5.10;2.33;;;;;;;0.71;84.40;94254.53;5015674;28;20470;-85
2021/01/24 05:20:54;;;;;;;5.90;2.80;;;;;;;0.65;85.38;94257.34;5015701;28;20861;-86
2021/01/24 05:23:22;;;;;;;4.00;2.43;;;;;;;0.76;85.37;94257.00;5015184;28;20455;-85
2021/01/24 05:25:50;;;;;;;2.73;2.00;;;;;;;0.67;85.90;94259.44;5015396;28;20967;-85
2021/01/24 05:28:18;;;;;;;3.30;2.53;;;;;;;0.62;87.18;94266.34;5015369;28;20463;-86
2021/01/24 05:30:44;;;;;;;6.37;3.17;;;;;;;0.65;87.63;94264.59;5014583;28;20488;-87
2021/01/24 05:33:10;;;;;;;4.10;2.60;;;;;;;0.61;88.32;94272.88;5014749;28;20452;-87
2021/01/24 05:35:47;;;;;;;3.50;3.03;;;;;;;0.60;89.41;94282.06;5014658;28;20420;-86
2021/01/24 05:38:23;;;;;;;5.50;2.97;;;;;;;0.54;89.57;94284.16;5014289;28;20459;-86
2021/01/24 05:40:50;;;;;;;3.30;2.50;;;;;;;0.59;89.89;94287.91;5014265;28;20470;-87
2021/01/24 05:43:17;;;;;;;8.30;3.33;;;;;;;0.59;89.50;94282.59;5014572;28;20459;-86
2021/01/24 05:45:43;;;;;;;7.87;2.67;;;;;;;0.63;89.46;94282.97;5014399;28;20494;-86
2021/01/24 05:48:10;;;;;;;4.37;3.07;;;;;;;0.64;88.91;94287.75;5014057;28;20491;-86
2021/01/24 05:50:36;;;;;;;4.03;2.90;;;;;;;0.54;88.54;94268.97;5014193;28;20499;-86
2021/01/24 05:53:04;;;;;;;7.03;3.33;;;;;;;0.53;88.46;94282.75;5014259;28;20473;-86
2021/01/24 05:55:33;;;;;;;4.37;3.07;;;;;;;0.28;88.74;94292.38;5015176;28;20519;-85
2021/01/24 05:58:13;;;;;;;3.80;2.77;;;;;;;0.28;88.86;94310.94;5014397;28;20444;-85
2021/01/24 06:00:42;;;;;;;4.73;3.10;;;;;;;0.19;89.16;94300.81;5014503;28;20464;-85
2021/01/24 06:03:08;;;;;;;5.83;3.27;;;;;;;0.13;89.24;94311.53;5014354;28;20436;-85
2021/01/24 06:05:35;;;;;;;6.30;3.70;;;;;;;0.23;88.95;94311.75;5014722;28;20436;-85
2021/01/24 06:08:01;;;;;;;2.83;2.40;;;;;;;0.36;88.82;94317.69;5014469;28;20948;-85
2021/01/24 06:10:28;;;;;;;5.33;3.17;;;;;;;0.37;89.50;94323.72;5014683;28;20488;-85
2021/01/24 06:12:59;;;;;;;5.50;3.40;;;;;;;0.32;89.75;94327.91;5014053;28;20929;-85
2021/01/24 06:15:28;;;;;;;5.47;3.13;;;;;;;0.43;89.53;94332.22;5014668;28;20428;-85
2021/01/24 06:17:57;;;;;;;5.87;3.33;;;;;;;0.41;89.70;94335.38;5015205;28;20507;-84
2021/01/24 06:20:30;;;;;;;4.50;3.30;;;;;;;0.45;89.89;94337.72;5014984;28;20468;-84
2021/01/24 06:23:03;;;;;;;5.37;3.33;;;;;;;0.34;89.67;94338.00;5015140;28;20428;-86
2021/01/24 06:25:32;;;;;;;5.90;3.53;;;;;;;0.32;89.84;94335.88;5015013;28;20897;-85
2021/01/24 06:28:04;;;;;;;6.50;3.57;;;;;;;0.33;90.22;94339.94;5014406;28;20838;-85
2021/01/24 06:30:31;;;;;;;4.63;2.90;;;;;;;0.30;90.74;94337.63;5014202;28;20503;-85
2021/01/24 06:33:15;;;;;;;5.10;3.40;;;;;;;0.30;90.50;94342.94;5014137;28;20461;-84
2021/01/24 06:35:46;;;;;;;5.57;3.57;;;;;;;0.37;90.78;94345.63;5014290;28;20486;-87
2021/01/24 06:38:27;;;;;;;7.00;4.27;;;;;;;0.24;91.67;94352.97;5014074;28;20447;-87
2021/01/24 06:40:54;;;;;;;6.83;3.70;;;;;;;0.32;91.01;94340.44;5014420;28;20463;-87
2021/01/24 06:43:40;;;;;;;6.23;3.40;;;;;;;0.29;90.87;94349.44;5014407;28;20494;-87
2021/01/24 06:46:07;;;;;;;3.80;2.77;;;;;;;0.25;90.73;94359.69;5015119;28;20587;-87
2021/01/24 06:48:47;;;;;;;5.20;3.53;;;;;;;0.18;91.78;94355.75;5014077;28;20976;-87
2021/01/24 06:51:36;;;;;;;4.70;3.80;;;;;;;0.13;91.46;94350.56;5014799;28;20492;-87
2021/01/24 06:54:05;;;;;;;6.70;3.33;;;;;;;0.14;91.48;94349.34;5015923;28;20499;-87
2021/01/24 06:56:41;;;;;;;7.17;3.47;;;;;;;0.15;91.29;94361.38;5014920;28;20428;-86
2021/01/24 06:59:09;;;;;;;9.90;4.50;;;;;;;0.04;90.71;94359.72;5014175;28;20429;-86
2021/01/24 07:01:36;;;;;;;5.70;3.20;;;;;;;-0.02;91.23;94375.75;5014159;28;20452;-85
2021/01/24 07:04:42;;;;;;;10.33;4.50;;;;;;;0.01;90.89;94374.00;5014124;28;20451;-86
2021/01/24 07:07:33;;;;;;;5.20;2.93;;;;;;;0.02;90.36;94374.72;5038056;28;20412;-85
2021/01/24 07:10:05;;;;;;;7.93;2.80;;;;;;;0.04;90.45;94390.81;5029469;28;20436;-87
2021/01/24 07:12:43;;;;;;;5.30;3.50;;;;;;;0.12;90.86;94388.94;5030184;28;20458;-84
2021/01/24 07:15:19;;;;;;;5.17;3.40;;;;;;;0.23;91.07;94399.97;5015332;28;20440;-84
2021/01/24 07:17:55;;;;;;;5.20;3.57;;;;;;;0.24;91.64;94384.78;5015282;28;20490;-85
2021/01/24 07:20:22;;;;;;;7.00;4.07;;;;;;;0.13;92.35;94380.47;5014479;28;20479;-84
2021/01/24 07:22:49;;;;;;;6.60;3.43;;;;;;;0.20;92.97;94385.09;5014018;28;20444;-85
2021/01/24 07:25:17;;;;;;;7.30;4.10;;;;;;;0.17;93.11;94388.09;5019770;28;20459;-86
2021/01/24 07:27:45;;;;;;;8.13;3.70;;;;;;;0.19;92.42;94388.97;5037745;28;20439;-86
2021/01/24 07:30:14;;;;;;;129.87;54.23;;;;;;;0.20;92.55;94387.75;5037651;28;20478;-85
2021/01/24 07:32:41;;;;;;;27.90;15.90;;;;;;;0.29;92.25;94391.88;5037479;28;20454;-86
2021/01/24 07:35:11;;;;;;;16.40;8.00;;;;;;;0.31;91.50;94392.09;5056250;28;20514;-85
2021/01/24 07:37:38;;;;;;;9.90;4.40;;;;;;;0.38;90.15;94402.00;5061374;28;20417;-85
2021/01/24 07:40:05;;;;;;;8.67;5.10;;;;;;;0.42;90.09;94407.72;5060834;28;20427;-86
2021/01/24 07:42:32;;;;;;;9.13;4.50;;;;;;;0.41;89.56;94393.72;5056398;28;20515;-86
2021/01/24 07:44:59;;;;;;;7.50;4.07;;;;;;;0.46;89.58;94405.44;5037530;28;20435;-86
2021/01/24 07:47:26;;;;;;;5.50;3.40;;;;;;;0.58;89.28;94406.56;5037433;28;20458;-88
2021/01/24 07:49:53;;;;;;;7.43;3.43;;;;;;;0.60;88.68;94414.72;5037132;28;20443;-85
2021/01/24 07:52:20;;;;;;;7.53;4.03;;;;;;;0.58;88.07;94413.81;5037662;28;20428;-85
2021/01/24 07:54:46;;;;;;;6.97;2.93;;;;;;;0.71;87.13;94414.44;5037737;28;20435;-87
2021/01/24 07:57:13;;;;;;;4.03;2.80;;;;;;;0.81;87.10;94420.69;5037214;28;20482;-87
2021/01/24 07:59:40;;;;;;;4.70;3.23;;;;;;;1.01;86.61;94419.91;5036922;28;20493;-87
2021/01/24 08:02:06;;;;;;;7.43;3.50;;;;;;;1.21;85.57;94420.34;5036965;28;20466;-85
2021/01/24 08:04:36;;;;;;;21.03;8.57;;;;;;;1.38;84.10;94426.59;5036426;28;20481;-87
2021/01/24 08:07:06;;;;;;;3.70;2.60;;;;;;;1.44;82.85;94424.50;5038965;28;20431;-87
2021/01/24 08:09:33;;;;;;;2.97;2.40;;;;;;;1.59;82.30;94421.91;5042975;28;20474;-86
2021/01/24 08:12:00;;;;;;;4.93;2.90;;;;;;;1.58;82.25;94422.41;5039881;28;20491;-87
2021/01/24 08:14:26;;;;;;;4.70;2.30;;;;;;;1.51;80.49;94420.44;5037738;28;20421;-87
2021/01/24 08:16:53;;;;;;;5.10;2.60;;;;;;;1.45;80.72;94431.22;5039120;28;20443;-87
2021/01/24 08:19:25;;;;;;;3.27;2.10;;;;;;;1.40;81.02;94436.72;5037593;28;20838;-87
2021/01/24 08:21:54;;;;;;;4.63;3.00;;;;;;;1.40;81.47;94436.72;5037414;28;20510;-86
2021/01/24 08:24:20;;;;;;;6.27;2.40;;;;;;;1.51;80.66;94445.06;5038392;28;20439;-86
2021/01/24 08:26:47;;;;;;;6.87;3.40;;;;;;;1.41;80.63;94443.44;5038927;28;20412;-86
2021/01/24 08:29:14;;;;;;;3.40;3.10;;;;;;;1.34;80.64;94434.22;5041023;28;20510;-84
2021/01/24 08:31:41;;;;;;;4.40;2.53;;;;;;;1.15;81.15;94438.38;5044878;28;20474;-86
2021/01/24 08:34:09;;;;;;;2.47;2.10;;;;;;;1.15;81.86;94439.09;5052325;28;20424;-85
2021/01/24 08:36:36;;;;;;;6.53;2.40;;;;;;;1.24;81.79;94443.91;5038622;28;20436;-85
2021/01/24 08:39:04;;;;;;;3.73;2.13;;;;;;;1.34;82.16;94444.84;5038403;28;20476;-85
2021/01/24 08:41:34;;;;;;;4.77;2.50;;;;;;;1.56;81.48;94451.47;5039194;28;20502;-85
2021/01/24 08:44:06;;;;;;;6.23;2.53;;;;;;;1.48;80.71;94454.09;5037393;28;20459;-87
2021/01/24 08:46:36;;;;;;;8.10;3.70;;;;;;;1.65;81.06;94458.22;5038773;28;20482;-87
2021/01/24 08:49:06;;;;;;;6.07;2.73;;;;;;;1.72;80.96;94463.56;5042867;28;20443;-86
2021/01/24 08:51:59;;;;;;;3.20;2.30;;;;;;;1.79;80.91;94465.53;5040137;28;20512;-86
2021/01/24 08:54:30;;;;;;;3.50;2.23;;;;;;;2.00;81.45;94466.13;5009157;28;20440;-87
2021/01/24 08:57:10;;;;;;;8.83;3.10;;;;;;;2.22;81.04;94477.31;5048541;28;20432;-87
2021/01/24 08:59:37;;;;;;;3.97;2.40;;;;;;;2.36;79.27;94481.22;5036458;28;20449;-86
2021/01/24 09:02:04;;;;;;;4.70;2.27;;;;;;;2.06;80.57;94471.97;5039762;28;20549;-86
2021/01/24 09:04:32;;;;;;;6.17;2.77;;;;;;;2.10;80.19;94485.63;5037272;28;20421;-86
2021/01/24 09:07:10;;;;;;;6.23;2.80;;;;;;;1.94;79.89;94483.47;5036877;28;20843;-86
2021/01/24 09:09:39;;;;;;;3.50;2.10;;;;;;;1.81;80.92;94488.94;5036245;28;20454;-87
2021/01/24 09:12:08;;;;;;;3.40;2.40;;;;;;;1.71;81.63;94488.00;5035767;28;20987;-87
2021/01/24 09:14:35;;;;;;;4.80;2.67;;;;;;;1.57;82.12;94498.03;5036922;28;20505;-86
2021/01/24 09:17:07;;;;;;;2.40;2.07;;;;;;;1.63;82.42;94501.97;5036328;28;20439;-85
2021/01/24 09:19:35;;;;;;;4.90;2.40;;;;;;;1.66;82.49;94497.53;5035612;28;20435;-86
2021/01/24 09:22:02;;;;;;;3.70;2.47;;;;;;;1.58;82.77;94499.47;5035910;28;20455;-85
2021/01/24 09:24:28;;;;;;;3.20;2.33;;;;;;;1.68;83.24;94510.31;5035594;28;20466;-85
2021/01/24 09:26:55;;;;;;;6.57;2.60;;;;;;;1.81;83.21;94512.84;5036340;28;20458;-85
2021/01/24 09:29:23;;;;;;;3.30;2.70;;;;;;;1.80;83.42;94514.81;5035698;28;20442;-85
2021/01/24 09:31:50;;;;;;;4.23;2.27;;;;;;;1.88;84.14;94517.50;5036365;28;20926;-85
2021/01/24 09:34:16;;;;;;;8.77;2.67;;;;;;;1.88;84.63;94515.53;5036411;28;20542;-85
2021/01/24 09:36:42;;;;;;;3.27;2.87;;;;;;;1.86;85.14;94517.28;5037470;28;20501;-85
2021/01/24 09:39:09;;;;;;;5.77;3.40;;;;;;;1.64;86.65;94523.94;5037479;28;20783;-85
2021/01/24 09:41:36;;;;;;;4.27;2.90;;;;;;;1.61;88.39;94525.72;5036158;28;20609;-84
2021/01/24 09:44:04;;;;;;;5.03;3.00;;;;;;;1.72;87.78;94532.69;5035233;28;20454;-84
2021/01/24 09:46:31;;;;;;;4.80;3.03;;;;;;;1.59;88.27;94525.53;5035556;28;20505;-85
2021/01/24 09:48:57;;;;;;;5.40;3.80;;;;;;;1.67;88.08;94522.91;5039014;28;20542;-85
2021/01/24 09:51:24;;;;;;;4.10;2.80;;;;;;;1.72;88.85;94527.38;5034685;28;20513;-85
2021/01/24 09:53:51;;;;;;;5.30;3.03;;;;;;;1.78;88.54;94527.91;5035302;28;20412;-85
2021/01/24 09:56:18;;;;;;;4.57;3.03;;;;;;;1.63;88.68;94533.16;5035624;28;20444;-85
2021/01/24 09:58:45;;;;;;;3.80;2.63;;;;;;;1.70;88.58;94535.13;5035364;28;20508;-85
2021/01/24 10:01:13;;;;;;;9.20;2.90;;;;;;;1.78;88.50;94541.22;5034662;28;20429;-86
2021/01/24 10:03:39;;;;;;;5.10;3.20;;;;;;;1.88;87.67;94541.41;5035617;28;20415;-85
2021/01/24 10:06:06;;;;;;;5.30;2.50;;;;;;;1.86;87.60;94544.59;5037249;28;20431;-86
2021/01/24 10:08:33;;;;;;;5.00;2.80;;;;;;;1.98;86.82;94547.63;5037006;28;20516;-85
2021/01/24 10:11:00;;;;;;;6.20;3.30;;;;;;;2.08;87.13;94551.22;5036970;28;20494;-85
2021/01/24 10:13:27;;;;;;;5.13;2.47;;;;;;;2.09;86.13;94548.03;5037451;28;20458;-84
2021/01/24 10:15:54;;;;;;;2.80;2.27;;;;;;;2.14;86.36;94547.16;5039390;28;20522;-84
2021/01/24 10:18:31;;;;;;;4.80;2.33;;;;;;;2.13;85.78;94553.72;5039201;28;20499;-84
2021/01/24 10:21:01;;;;;;;6.93;3.47;;;;;;;2.14;85.74;94565.78;5037434;28;20529;-85
2021/01/24 10:23:28;;;;;;;4.00;2.40;;;;;;;2.33;84.70;94567.41;5036841;28;20462;-86
2021/01/24 10:25:56;;;;;;;3.00;2.17;;;;;;;2.38;84.58;94571.88;5035550;28;20441;-84
2021/01/24 10:28:23;;;;;;;5.77;2.63;;;;;;;2.34;83.95;94569.56;5036363;28;20459;-86
2021/01/24 10:30:50;;;;;;;2.80;2.40;;;;;;;2.28;83.95;94570.97;5036103;28;20490;-85
2021/01/24 10:33:17;;;;;;;5.07;2.60;;;;;;;2.27;83.18;94564.94;5051421;28;20422;-85
2021/01/24 10:35:44;;;;;;;2.97;2.40;;;;;;;2.32;81.56;94566.03;5058348;28;20443;-86
2021/01/24 10:38:11;;;;;;;5.40;2.60;;;;;;;2.29;80.51;94567.06;5057940;28;20447;-85
2021/01/24 10:40:38;;;;;;;5.00;2.47;;;;;;;2.29;80.10;94554.47;5053509;28;20546;-87
2021/01/24 10:43:05;;;;;;;1.77;1.53;;;;;;;2.32;78.43;94571.34;5037158;28;20461;-86
2021/01/24 10:45:32;;;;;;;8.27;2.10;;;;;;;2.25;78.02;94570.06;5035862;28;20431;-87
2021/01/24 10:47:59;;;;;;;3.77;2.07;;;;;;;2.24;78.86;94565.97;5035757;28;20450;-87
2021/01/24 10:50:26;;;;;;;5.93;2.13;;;;;;;2.31;76.93;94564.59;5034826;28;20487;-87
2021/01/24 10:52:53;;;;;;;4.03;3.10;;;;;;;2.34;75.95;94561.59;5035125;28;20470;-86
2021/01/24 10:55:20;;;;;;;4.37;1.93;;;;;;;2.38;75.82;94566.56;5035034;28;20910;-86
2021/01/24 10:57:46;;;;;;;2.40;1.93;;;;;;;2.47;75.70;94561.44;5039076;28;20531;-86
2021/01/24 11:00:14;;;;;;;5.03;2.20;;;;;;;2.56;76.32;94573.50;5038820;28;20450;-87
2021/01/24 11:02:40;;;;;;;3.67;2.07;;;;;;;2.75;74.27;94557.19;5038659;28;20408;-86
2021/01/24 11:05:09;;;;;;;3.00;2.30;;;;;;;2.81;73.24;94558.44;5039209;28;20447;-86
2021/01/24 11:07:36;;;;;;;3.20;2.03;;;;;;;2.88;72.53;94567.69;5038885;28;20989;-86
2021/01/24 11:10:04;;;;;;;3.43;2.03;;;;;;;2.86;73.25;94573.53;5038523;28;20527;-86
2021/01/24 11:12:31;;;;;;;3.33;2.33;;;;;;;3.10;72.77;94580.28;5038007;28;20565;-86
2021/01/24 11:14:57;;;;;;;2.33;1.40;;;;;;;3.33;70.57;94577.56;5039165;28;20431;-86
2021/01/24 11:17:23;;;;;;;2.60;1.67;;;;;;;3.43;69.29;94584.50;5038667;28;20772;-86
2021/01/24 11:19:51;;;;;;;2.23;1.70;;;;;;;3.33;70.07;94580.97;5038275;28;20431;-86
2021/01/24 11:22:18;;;;;;;2.90;1.67;;;;;;;3.34;69.88;94585.06;5038392;28;20478;-86
2021/01/24 11:24:45;;;;;;;4.10;1.90;;;;;;;3.47;69.12;94582.19;5038611;28;20495;-86
2021/01/24 11:27:13;;;;;;;2.73;1.40;;;;;;;3.16;69.39;94594.81;5038354;28;20422;-86
2021/01/24 11:29:40;;;;;;;1.50;1.40;;;;;;;3.04;69.71;94588.44;5037550;28;20428;-86
2021/01/24 11:32:08;;;;;;;2.20;1.40;;;;;;;3.04;69.70;94599.09;5038335;28;20484;-85
2021/01/24 11:34:35;;;;;;;2.90;1.40;;;;;;;3.08;70.13;94606.72;5037938;28;20443;-85
2021/01/24 11:37:01;;;;;;;1.97;1.50;;;;;;;3.12;69.13;94599.81;5041305;28;20440;-86
2021/01/24 11:39:28;;;;;;;2.70;1.77;;;;;;;3.08;70.44;94610.09;5038764;28;20474;-85
2021/01/24 11:41:54;;;;;;;3.53;1.53;;;;;;;3.10;69.11;94604.94;5038188;28;20493;-86
2021/01/24 11:44:23;;;;;;;1.93;1.60;;;;;;;3.00;70.27;94604.09;5038009;28;20442;-86